This is the latest recevied weather packets stored in our database for station/object KK7MLS-13. If no packets are shown the sender has not sent any weather packets the latest 10 day(s).
| Time | Temp. | Humidity | Pressure | Rain* | Wind** | Luminosity | Snow |
|---|---|---|---|---|---|---|---|
| 1777764825 | 23.89° C | 52% | 1012.1 hPa | 0 mm | - | 291 W/m² | - |
| 1777764523 | 23.89° C | 51% | 1012.1 hPa | 0 mm | - | 331 W/m² | - |
| 1777764219 | 25° C | 50% | 1012.2 hPa | 0 mm | - | 383 W/m² | - |
| 1777763915 | 25° C | 48% | 1012.3 hPa | 0 mm | - | 383 W/m² | - |
| 1777763614 | 24.44° C | 48% | 1012.3 hPa | 0 mm | - | 418 W/m² | - |
| 1777763311 | 23.89° C | 55% | 1012.3 hPa | 0 mm | - | 413 W/m² | - |
| 1777763009 | 23.89° C | 50% | 1012.3 hPa | 0 mm | - | 272 W/m² | - |
| 1777762706 | 23.89° C | 49% | 1012.4 hPa | 0 mm | - | 294 W/m² | - |
| 1777762403 | 23.89° C | 51% | 1012.5 hPa | 0 mm | - | 362 W/m² | - |
| 1777762100 | 23.33° C | 51% | 1012.7 hPa | 0 mm | - | 383 W/m² | - |
| 1777761795 | 22.78° C | 52% | 1012.7 hPa | 0 mm | - | 446 W/m² | - |
| 1777761493 | 23.33° C | 52% | 1012.8 hPa | 0 mm | - | 368 W/m² | - |
| 1777761191 | 23.89° C | 49% | 1012.8 hPa | 0 mm | - | 377 W/m² | - |
| 1777760889 | 24.44° C | 49% | 1013 hPa | 0 mm | - | 460 W/m² | - |
| 1777760586 | 23.89° C | 55% | 1013.1 hPa | 0 mm | - | 478 W/m² | - |
| 1777760281 | 23.89° C | 50% | 1013.1 hPa | 0 mm | - | 463 W/m² | - |
| 1777759978 | 22.78° C | 52% | 1013.1 hPa | 0 mm | - | 535 W/m² | - |
| 1777759675 | 21.67° C | 59% | 1013.3 hPa | 0 mm | - | 597 W/m² | - |
| 1777759371 | 21.67° C | 54% | 1013.4 hPa | 0 mm | - | 546 W/m² | - |
| 1777759067 | 21.67° C | 53% | 1013.5 hPa | 0 mm | - | 538 W/m² | - |
| 1777758765 | 21.11° C | 54% | 1013.3 hPa | 0 mm | - | 581 W/m² | - |
| 1777758462 | 21.11° C | 57% | 1013.5 hPa | 0 mm | - | 563 W/m² | - |
| 1777758159 | 21.11° C | 58% | 1013.7 hPa | 0 mm | - | 418 W/m² | - |
| 1777757856 | 21.11° C | 58% | 1013.6 hPa | 0 mm | - | 511 W/m² | - |
| 1777757553 | 21.67° C | 54% | 1013.8 hPa | 0 mm | - | 544 W/m² | - |
* Rain latest hour (hover to see other rain measurements)
** Current wind speed in m/s (hover to see current wind gust speed)